x

Newport, Or (nwpo3) Weather Station

1:00pm - Fri 18th Jan 2019 All times are PST. -8 hours from GMT.

  • Wind
    10mph, 16mph gusts
  • Air Temp 47°f
  • Sea Pressure 1015.4mb
  • Newport, Or
  • Newport, Or

More Historic Weather Station data

Upgrade to MSW Pro to gain access to the past 30 days of data for over 8000 Wavebouys and Weather Stations around the globe.

Join

Comparision Forecast

View Surf forecast
   
Fri 01/18 1:00pm 10 16 mph 1015.4mb 47f
12:00pm 11 16 mph 1017mb 47f
11:00am 10 14 mph 1018.8mb 47f
10:00am 10 15 mph 1019.2mb 48f
9:00am 10 15 mph 1019.1mb 49f
8:00am 7 14 mph 1019mb 48f
7:00am 8 10 mph 1019mb 48f
6:00am 7 8 mph 1019.1mb 49f
5:00am 9 11 mph 1019.1mb 50f
4:00am 21 23 mph 1018.7mb 51f
3:00am 21 25 mph 1019mb 52f
2:00am 22 28 mph 1018.4mb 51f
1:00am 21 25 mph 1017.8mb 52f
12:00am 22 26 mph 1017.3mb 52f
Thu 01/17 11:00pm 20 23 mph 1015.9mb 52f
10:00pm 21 26 mph 1014.6mb 52f
9:00pm 14 16 mph 1013.3mb 50f
8:00pm 20 23 mph 1012.1mb 51f
7:00pm 26 31 mph 1011mb 48f
6:00pm 32 37 mph 1009.6mb 50f
5:00pm 26 31 mph 1007.8mb 51f
4:00pm 26 34 mph 1006.2mb 52f
3:00pm 25 30 mph 1004.7mb 53f
2:00pm 26 31 mph 1002.9mb 50f
1:00pm 36 41 mph 1001.5mb 51f
12:00pm 28 33 mph 1000.8mb 51f
11:00am 25 32 mph 999.8mb 49f
10:00am 33 44 mph 998.4mb 51f
9:00am 34 44 mph 997.4mb 51f
8:00am 26 36 mph 996.5mb 51f
7:00am 33 40 mph 995.7mb 51f
6:00am 14 23 mph 995.1mb 49f
5:00am 17 22 mph 994.7mb 50f
4:00am 14 17 mph 993.9mb 55f
3:00am 14 20 mph 993.9mb 55f
2:00am 18 23 mph 994mb 56f
1:00am 13 18 mph 994.1mb 55f
12:00am 11 15 mph 994.9mb 55f
Wed 01/16 11:00pm 9 14 mph 995.4mb 50f
10:00pm 11 13 mph 995.6mb 48f
9:00pm 13 17 mph 995.7mb 49f
8:00pm 14 18 mph 995.7mb 48f
7:00pm 14 17 mph 995.8mb 47f
6:00pm 18 25 mph 996.1mb 46f
5:00pm 21 26 mph 996.4mb 46f
4:00pm 20 24 mph 997.7mb 47f
3:00pm 20 25 mph 999.1mb 48f
2:00pm 18 22 mph 1000.2mb 47f
1:00pm 18 22 mph 1001.8mb 47f
12:00pm 11 16 mph 1003.7mb 46f
11:00am 14 18 mph 1005mb 44f
10:00am 13 16 mph 1005.7mb 43f
9:00am 14 17 mph 1005.4mb 44f
8:00am 11 15 mph 1005.4mb 43f
7:00am 11 17 mph 1005.5mb 42f
6:00am 13 16 mph 1005.3mb 44f
5:00am 14 18 mph 1004.7mb 43f
4:00am 14 16 mph 1005.1mb 43f
3:00am 14 17 mph 1005mb 43f
2:00am 11 14 mph 1004.7mb 43f
1:00am 13 15 mph 1004.7mb 44f
12:00am 11 13 mph 1005.2mb 44f
Tue 01/15 11:00pm 7 10 mph 1005.1mb 45f
10:00pm 18 24 mph 1004.1mb 45f
9:00pm 15 18 mph 1004.4mb 45f
8:00pm 15 18 mph 1004.9mb 46f
7:00pm 9 13 mph 1005.5mb 47f
6:00pm 14 20 mph 1005.9mb 47f
5:00pm 11 14 mph 1006.5mb 48f
4:00pm 11 14 mph 1006.3mb 50f
3:00pm 11 16 mph 1006.4mb 51f
2:00pm 15 20 mph 1006.6mb 51f
1:00pm 13 16 mph 1007.2mb 50f
12:00pm 21 28 mph 1007.4mb 47f
11:00am 20 28 mph 1008.4mb 44f
10:00am 20 26 mph 1008.6mb 43f
9:00am 18 23 mph 1009mb 42f
8:00am 16 20 mph 1009mb 42f
7:00am 18 22 mph 1009mb 43f
6:00am 18 23 mph 1008.9mb 43f
5:00am 18 23 mph 1008.9mb 44f
4:00am 17 22 mph 1009.1mb 44f
3:00am 20 23 mph 1009.4mb 44f
2:00am 17 23 mph 1009.4mb 43f
1:00am 18 23 mph 1009.5mb 43f
12:00am 16 20 mph 1009.8mb 44f
Mon 01/14 11:00pm 15 21 mph 1010.3mb 44f